sensor_id;sensor_type;location;lat;lon;timestamp;P1;durP1;ratioP1;P2;durP2;ratioP2
33902;SDS011;20194;50.950;5.346;2022-12-19T00:01:27;36.22;;;15.55;;
33902;SDS011;20194;50.950;5.346;2022-12-19T00:03:55;43.35;;;15.77;;
33902;SDS011;20194;50.950;5.346;2022-12-19T00:06:23;43.42;;;15.48;;
33902;SDS011;20194;50.950;5.346;2022-12-19T00:08:51;40.05;;;15.23;;
33902;SDS011;20194;50.950;5.346;2022-12-19T00:11:18;44.35;;;16.05;;
33902;SDS011;20194;50.950;5.346;2022-12-19T00:13:46;38.08;;;15.50;;
33902;SDS011;20194;50.950;5.346;2022-12-19T00:16:13;44.58;;;16.58;;
33902;SDS011;20194;50.950;5.346;2022-12-19T00:18:41;40.33;;;16.08;;
33902;SDS011;20194;50.950;5.346;2022-12-19T00:21:08;33.40;;;16.08;;
33902;SDS011;20194;50.950;5.346;2022-12-19T00:23:36;37.70;;;15.38;;
33902;SDS011;20194;50.950;5.346;2022-12-19T00:26:21;34.65;;;14.52;;
33902;SDS011;20194;50.950;5.346;2022-12-19T00:28:50;41.58;;;16.95;;
33902;SDS011;20194;50.950;5.346;2022-12-19T00:31:18;44.47;;;16.23;;
33902;SDS011;20194;50.950;5.346;2022-12-19T00:33:46;32.67;;;13.75;;
33902;SDS011;20194;50.950;5.346;2022-12-19T00:36:13;34.78;;;13.38;;
33902;SDS011;20194;50.950;5.346;2022-12-19T00:38:41;41.72;;;16.52;;
33902;SDS011;20194;50.950;5.346;2022-12-19T00:43:32;39.50;;;15.02;;
33902;SDS011;20194;50.950;5.346;2022-12-19T00:46:00;36.13;;;15.27;;
33902;SDS011;20194;50.950;5.346;2022-12-19T00:48:27;40.50;;;16.20;;
33902;SDS011;20194;50.950;5.346;2022-12-19T00:51:05;36.80;;;14.13;;
33902;SDS011;20194;50.950;5.346;2022-12-19T00:53:34;35.13;;;14.77;;
33902;SDS011;20194;50.950;5.346;2022-12-19T00:56:02;40.13;;;15.35;;
33902;SDS011;20194;50.950;5.346;2022-12-19T00:58:29;39.72;;;14.82;;
33902;SDS011;20194;50.950;5.346;2022-12-19T01:00:55;34.58;;;13.93;;
33902;SDS011;20194;50.950;5.346;2022-12-19T01:03:21;42.08;;;15.05;;
33902;SDS011;20194;50.950;5.346;2022-12-19T01:05:48;34.90;;;12.57;;
33902;SDS011;20194;50.950;5.346;2022-12-19T01:08:15;32.65;;;13.30;;
33902;SDS011;20194;50.950;5.346;2022-12-19T01:10:45;38.28;;;15.20;;
33902;SDS011;20194;50.950;5.346;2022-12-19T01:13:12;32.85;;;15.40;;
33902;SDS011;20194;50.950;5.346;2022-12-19T01:15:39;30.70;;;12.43;;
33902;SDS011;20194;50.950;5.346;2022-12-19T01:18:05;31.98;;;13.60;;
33902;SDS011;20194;50.950;5.346;2022-12-19T01:20:36;30.90;;;12.75;;
33902;SDS011;20194;50.950;5.346;2022-12-19T01:23:03;31.50;;;13.27;;
33902;SDS011;20194;50.950;5.346;2022-12-19T01:25:28;30.17;;;13.20;;
33902;SDS011;20194;50.950;5.346;2022-12-19T01:27:55;35.33;;;14.43;;
33902;SDS011;20194;50.950;5.346;2022-12-19T01:30:21;31.67;;;12.50;;
33902;SDS011;20194;50.950;5.346;2022-12-19T01:32:46;31.80;;;14.05;;
33902;SDS011;20194;50.950;5.346;2022-12-19T01:35:12;34.67;;;13.70;;
33902;SDS011;20194;50.950;5.346;2022-12-19T01:37:38;28.00;;;13.30;;
33902;SDS011;20194;50.950;5.346;2022-12-19T01:40:04;35.25;;;14.13;;
33902;SDS011;20194;50.950;5.346;2022-12-19T01:42:33;35.33;;;13.27;;
33902;SDS011;20194;50.950;5.346;2022-12-19T01:47:33;30.77;;;13.32;;
33902;SDS011;20194;50.950;5.346;2022-12-19T01:50:09;32.75;;;12.48;;
33902;SDS011;20194;50.950;5.346;2022-12-19T01:52:38;30.38;;;13.25;;
33902;SDS011;20194;50.950;5.346;2022-12-19T01:55:04;33.47;;;13.65;;
33902;SDS011;20194;50.950;5.346;2022-12-19T01:57:31;25.48;;;9.48;;
33902;SDS011;20194;50.950;5.346;2022-12-19T01:59:58;27.73;;;13.75;;
33902;SDS011;20194;50.950;5.346;2022-12-19T02:02:27;31.45;;;10.93;;
33902;SDS011;20194;50.950;5.346;2022-12-19T02:04:57;36.22;;;14.45;;
33902;SDS011;20194;50.950;5.346;2022-12-19T02:07:23;30.42;;;12.70;;
33902;SDS011;20194;50.950;5.346;2022-12-19T02:09:51;35.42;;;14.27;;
33902;SDS011;20194;50.950;5.346;2022-12-19T02:12:19;29.45;;;12.20;;
33902;SDS011;20194;50.950;5.346;2022-12-19T02:14:45;31.95;;;12.90;;
33902;SDS011;20194;50.950;5.346;2022-12-19T02:17:17;30.42;;;13.90;;
33902;SDS011;20194;50.950;5.346;2022-12-19T02:28:26;31.17;;;11.93;;
33902;SDS011;20194;50.950;5.346;2022-12-19T02:31:05;29.48;;;12.05;;
33902;SDS011;20194;50.950;5.346;2022-12-19T02:36:09;28.02;;;12.27;;
33902;SDS011;20194;50.950;5.346;2022-12-19T02:38:52;31.02;;;12.70;;
33902;SDS011;20194;50.950;5.346;2022-12-19T02:41:40;26.58;;;11.82;;
33902;SDS011;20194;50.950;5.346;2022-12-19T02:44:12;30.70;;;12.82;;
33902;SDS011;20194;50.950;5.346;2022-12-19T02:46:43;28.63;;;12.18;;
33902;SDS011;20194;50.950;5.346;2022-12-19T02:49:11;33.25;;;12.05;;
33902;SDS011;20194;50.950;5.346;2022-12-19T02:51:38;30.65;;;13.35;;
33902;SDS011;20194;50.950;5.346;2022-12-19T02:54:03;31.70;;;13.55;;
33902;SDS011;20194;50.950;5.346;2022-12-19T02:57:15;38.25;;;12.80;;
33902;SDS011;20194;50.950;5.346;2022-12-19T02:59:33;32.60;;;12.15;;
33902;SDS011;20194;50.950;5.346;2022-12-19T03:10:57;28.13;;;11.60;;
33902;SDS011;20194;50.950;5.346;2022-12-19T03:12:59;26.15;;;11.20;;
33902;SDS011;20194;50.950;5.346;2022-12-19T03:15:32;31.27;;;12.57;;
33902;SDS011;20194;50.950;5.346;2022-12-19T03:17:59;29.40;;;12.88;;
33902;SDS011;20194;50.950;5.346;2022-12-19T03:20:41;26.92;;;11.82;;
33902;SDS011;20194;50.950;5.346;2022-12-19T03:23:16;28.48;;;11.65;;
33902;SDS011;20194;50.950;5.346;2022-12-19T03:25:43;30.98;;;11.13;;
33902;SDS011;20194;50.950;5.346;2022-12-19T03:28:15;25.48;;;11.15;;
33902;SDS011;20194;50.950;5.346;2022-12-19T03:30:47;23.30;;;10.63;;
33902;SDS011;20194;50.950;5.346;2022-12-19T03:33:14;24.02;;;11.07;;
33902;SDS011;20194;50.950;5.346;2022-12-19T03:35:43;22.20;;;10.85;;
33902;SDS011;20194;50.950;5.346;2022-12-19T03:38:10;27.25;;;11.18;;
33902;SDS011;20194;50.950;5.346;2022-12-19T03:40:38;22.85;;;9.23;;
33902;SDS011;20194;50.950;5.346;2022-12-19T03:43:07;21.67;;;9.70;;
33902;SDS011;20194;50.950;5.346;2022-12-19T03:48:10;24.05;;;11.88;;
33902;SDS011;20194;50.950;5.346;2022-12-19T03:50:56;21.13;;;9.70;;
33902;SDS011;20194;50.950;5.346;2022-12-19T03:57:01;24.75;;;9.60;;
33902;SDS011;20194;50.950;5.346;2022-12-19T03:59:33;24.00;;;10.40;;
33902;SDS011;20194;50.950;5.346;2022-12-19T04:02:06;20.42;;;9.60;;
33902;SDS011;20194;50.950;5.346;2022-12-19T04:04:33;20.40;;;9.85;;
33902;SDS011;20194;50.950;5.346;2022-12-19T04:07:03;22.80;;;9.88;;
33902;SDS011;20194;50.950;5.346;2022-12-19T04:09:31;19.13;;;8.98;;
33902;SDS011;20194;50.950;5.346;2022-12-19T04:11:59;18.17;;;9.15;;
33902;SDS011;20194;50.950;5.346;2022-12-19T04:14:30;24.25;;;10.60;;
33902;SDS011;20194;50.950;5.346;2022-12-19T04:19:51;20.25;;;9.57;;
33902;SDS011;20194;50.950;5.346;2022-12-19T04:22:29;19.90;;;9.88;;
33902;SDS011;20194;50.950;5.346;2022-12-19T04:25:02;19.65;;;9.65;;
33902;SDS011;20194;50.950;5.346;2022-12-19T04:27:31;22.65;;;9.50;;
33902;SDS011;20194;50.950;5.346;2022-12-19T04:30:00;18.10;;;8.70;;
33902;SDS011;20194;50.950;5.346;2022-12-19T04:32:27;20.88;;;9.18;;
33902;SDS011;20194;50.950;5.346;2022-12-19T04:34:56;22.27;;;9.45;;
33902;SDS011;20194;50.950;5.346;2022-12-19T04:37:23;19.38;;;9.85;;
33902;SDS011;20194;50.950;5.346;2022-12-19T04:39:49;20.25;;;8.27;;
33902;SDS011;20194;50.950;5.346;2022-12-19T04:42:15;20.17;;;9.10;;
33902;SDS011;20194;50.950;5.346;2022-12-19T04:44:40;21.27;;;9.93;;
33902;SDS011;20194;50.950;5.346;2022-12-19T04:47:06;20.80;;;8.02;;
33902;SDS011;20194;50.950;5.346;2022-12-19T04:49:32;16.33;;;7.28;;
33902;SDS011;20194;50.950;5.346;2022-12-19T04:51:57;18.80;;;8.40;;
33902;SDS011;20194;50.950;5.346;2022-12-19T04:54:23;14.73;;;6.85;;
33902;SDS011;20194;50.950;5.346;2022-12-19T04:56:49;21.25;;;8.23;;
33902;SDS011;20194;50.950;5.346;2022-12-19T04:59:14;16.85;;;7.88;;
33902;SDS011;20194;50.950;5.346;2022-12-19T05:01:40;13.75;;;8.15;;
33902;SDS011;20194;50.950;5.346;2022-12-19T05:04:05;18.30;;;8.10;;
33902;SDS011;20194;50.950;5.346;2022-12-19T05:06:31;13.82;;;8.35;;
33902;SDS011;20194;50.950;5.346;2022-12-19T05:08:57;12.63;;;7.47;;
33902;SDS011;20194;50.950;5.346;2022-12-19T05:11:23;14.25;;;7.30;;
33902;SDS011;20194;50.950;5.346;2022-12-19T05:13:49;11.32;;;6.00;;
33902;SDS011;20194;50.950;5.346;2022-12-19T05:16:15;16.20;;;7.25;;
33902;SDS011;20194;50.950;5.346;2022-12-19T05:18:40;13.50;;;6.63;;
33902;SDS011;20194;50.950;5.346;2022-12-19T05:21:07;11.85;;;6.20;;
33902;SDS011;20194;50.950;5.346;2022-12-19T05:23:32;14.40;;;7.10;;
33902;SDS011;20194;50.950;5.346;2022-12-19T05:25:59;10.48;;;6.38;;
33902;SDS011;20194;50.950;5.346;2022-12-19T05:28:26;10.82;;;6.07;;
33902;SDS011;20194;50.950;5.346;2022-12-19T05:31:00;14.60;;;6.20;;
33902;SDS011;20194;50.950;5.346;2022-12-19T05:33:45;10.20;;;6.50;;
33902;SDS011;20194;50.950;5.346;2022-12-19T05:36:11;15.88;;;6.10;;
33902;SDS011;20194;50.950;5.346;2022-12-19T05:38:38;13.88;;;5.63;;
33902;SDS011;20194;50.950;5.346;2022-12-19T05:41:11;9.90;;;5.25;;
33902;SDS011;20194;50.950;5.346;2022-12-19T05:43:42;13.23;;;5.95;;
33902;SDS011;20194;50.950;5.346;2022-12-19T05:46:18;11.10;;;5.80;;
33902;SDS011;20194;50.950;5.346;2022-12-19T05:48:44;11.93;;;6.20;;
33902;SDS011;20194;50.950;5.346;2022-12-19T05:51:11;10.27;;;6.10;;
33902;SDS011;20194;50.950;5.346;2022-12-19T05:53:37;8.70;;;4.70;;
33902;SDS011;20194;50.950;5.346;2022-12-19T05:56:04;11.10;;;5.95;;
33902;SDS011;20194;50.950;5.346;2022-12-19T05:58:31;16.58;;;5.72;;
33902;SDS011;20194;50.950;5.346;2022-12-19T06:01:04;9.93;;;5.22;;
33902;SDS011;20194;50.950;5.346;2022-12-19T06:03:32;11.38;;;5.53;;
33902;SDS011;20194;50.950;5.346;2022-12-19T06:06:05;10.95;;;5.80;;
33902;SDS011;20194;50.950;5.346;2022-12-19T06:08:36;9.68;;;5.32;;
33902;SDS011;20194;50.950;5.346;2022-12-19T06:11:03;10.57;;;6.00;;
33902;SDS011;20194;50.950;5.346;2022-12-19T06:13:30;10.25;;;5.43;;
33902;SDS011;20194;50.950;5.346;2022-12-19T06:15:57;17.05;;;5.28;;
33902;SDS011;20194;50.950;5.346;2022-12-19T06:18:27;11.95;;;5.78;;
33902;SDS011;20194;50.950;5.346;2022-12-19T06:21:00;10.07;;;5.00;;
33902;SDS011;20194;50.950;5.346;2022-12-19T06:23:31;9.95;;;5.50;;
33902;SDS011;20194;50.950;5.346;2022-12-19T06:25:59;12.63;;;5.70;;
33902;SDS011;20194;50.950;5.346;2022-12-19T06:28:26;9.38;;;5.13;;
33902;SDS011;20194;50.950;5.346;2022-12-19T06:30:54;10.05;;;5.60;;
33902;SDS011;20194;50.950;5.346;2022-12-19T06:33:20;9.32;;;5.07;;
33902;SDS011;20194;50.950;5.346;2022-12-19T06:35:46;13.85;;;5.85;;
33902;SDS011;20194;50.950;5.346;2022-12-19T06:38:12;11.55;;;5.85;;
33902;SDS011;20194;50.950;5.346;2022-12-19T06:40:43;12.65;;;5.95;;
33902;SDS011;20194;50.950;5.346;2022-12-19T06:43:27;9.13;;;5.40;;
33902;SDS011;20194;50.950;5.346;2022-12-19T06:45:55;9.13;;;4.95;;
33902;SDS011;20194;50.950;5.346;2022-12-19T06:48:22;11.43;;;5.13;;
33902;SDS011;20194;50.950;5.346;2022-12-19T06:50:47;12.93;;;6.00;;
33902;SDS011;20194;50.950;5.346;2022-12-19T06:53:13;12.30;;;5.88;;
33902;SDS011;20194;50.950;5.346;2022-12-19T06:55:39;9.93;;;5.30;;
33902;SDS011;20194;50.950;5.346;2022-12-19T06:58:04;8.73;;;4.80;;
33902;SDS011;20194;50.950;5.346;2022-12-19T07:00:32;7.72;;;4.38;;
33902;SDS011;20194;50.950;5.346;2022-12-19T07:02:59;12.15;;;5.75;;
33902;SDS011;20194;50.950;5.346;2022-12-19T07:05:28;10.32;;;5.18;;
33902;SDS011;20194;50.950;5.346;2022-12-19T07:07:54;10.73;;;5.20;;
33902;SDS011;20194;50.950;5.346;2022-12-19T07:10:20;9.40;;;5.10;;
33902;SDS011;20194;50.950;5.346;2022-12-19T07:12:46;11.70;;;5.40;;
33902;SDS011;20194;50.950;5.346;2022-12-19T07:15:11;9.77;;;5.13;;
33902;SDS011;20194;50.950;5.346;2022-12-19T07:17:37;11.80;;;5.15;;
33902;SDS011;20194;50.950;5.346;2022-12-19T07:20:03;10.55;;;5.32;;
33902;SDS011;20194;50.950;5.346;2022-12-19T07:22:30;11.50;;;4.68;;
33902;SDS011;20194;50.950;5.346;2022-12-19T07:24:58;7.50;;;4.60;;
33902;SDS011;20194;50.950;5.346;2022-12-19T07:27:26;8.15;;;5.10;;
33902;SDS011;20194;50.950;5.346;2022-12-19T07:29:52;9.98;;;4.22;;
33902;SDS011;20194;50.950;5.346;2022-12-19T07:32:18;9.15;;;4.65;;
33902;SDS011;20194;50.950;5.346;2022-12-19T07:34:44;9.90;;;5.13;;
33902;SDS011;20194;50.950;5.346;2022-12-19T07:37:10;10.57;;;5.45;;
33902;SDS011;20194;50.950;5.346;2022-12-19T07:39:36;8.65;;;5.47;;
33902;SDS011;20194;50.950;5.346;2022-12-19T07:42:01;11.13;;;5.25;;
33902;SDS011;20194;50.950;5.346;2022-12-19T07:44:27;9.10;;;4.57;;
33902;SDS011;20194;50.950;5.346;2022-12-19T07:46:53;7.82;;;4.90;;
33902;SDS011;20194;50.950;5.346;2022-12-19T07:49:19;10.55;;;4.72;;
33902;SDS011;20194;50.950;5.346;2022-12-19T07:51:44;11.05;;;5.93;;
33902;SDS011;20194;50.950;5.346;2022-12-19T07:54:10;8.80;;;5.53;;
33902;SDS011;20194;50.950;5.346;2022-12-19T07:56:36;8.88;;;5.13;;
33902;SDS011;20194;50.950;5.346;2022-12-19T07:59:02;10.25;;;4.47;;
33902;SDS011;20194;50.950;5.346;2022-12-19T08:01:27;11.55;;;5.10;;
33902;SDS011;20194;50.950;5.346;2022-12-19T08:03:53;9.20;;;4.82;;
33902;SDS011;20194;50.950;5.346;2022-12-19T08:06:19;10.73;;;4.82;;
33902;SDS011;20194;50.950;5.346;2022-12-19T08:08:45;10.93;;;5.05;;
33902;SDS011;20194;50.950;5.346;2022-12-19T08:11:14;9.55;;;4.30;;
33902;SDS011;20194;50.950;5.346;2022-12-19T08:13:42;7.47;;;4.65;;
33902;SDS011;20194;50.950;5.346;2022-12-19T08:16:08;9.68;;;4.53;;
33902;SDS011;20194;50.950;5.346;2022-12-19T08:18:34;8.18;;;4.38;;
33902;SDS011;20194;50.950;5.346;2022-12-19T08:21:01;9.40;;;4.28;;
33902;SDS011;20194;50.950;5.346;2022-12-19T08:23:26;8.18;;;4.50;;
33902;SDS011;20194;50.950;5.346;2022-12-19T08:25:59;11.57;;;4.88;;
33902;SDS011;20194;50.950;5.346;2022-12-19T08:28:30;8.52;;;4.70;;
33902;SDS011;20194;50.950;5.346;2022-12-19T08:30:57;9.98;;;4.63;;
33902;SDS011;20194;50.950;5.346;2022-12-19T08:33:24;12.35;;;4.72;;
33902;SDS011;20194;50.950;5.346;2022-12-19T08:35:50;10.00;;;4.78;;
33902;SDS011;20194;50.950;5.346;2022-12-19T08:38:15;11.95;;;4.30;;
33902;SDS011;20194;50.950;5.346;2022-12-19T08:40:41;10.13;;;4.53;;
33902;SDS011;20194;50.950;5.346;2022-12-19T08:43:07;9.10;;;4.35;;
33902;SDS011;20194;50.950;5.346;2022-12-19T08:45:32;7.78;;;4.20;;
33902;SDS011;20194;50.950;5.346;2022-12-19T08:47:58;6.88;;;4.35;;
33902;SDS011;20194;50.950;5.346;2022-12-19T08:50:24;8.30;;;4.25;;
33902;SDS011;20194;50.950;5.346;2022-12-19T08:52:50;7.68;;;4.32;;
33902;SDS011;20194;50.950;5.346;2022-12-19T08:55:16;9.80;;;4.15;;
33902;SDS011;20194;50.950;5.346;2022-12-19T08:57:41;6.43;;;4.00;;
33902;SDS011;20194;50.950;5.346;2022-12-19T09:00:07;6.22;;;3.75;;
33902;SDS011;20194;50.950;5.346;2022-12-19T09:02:33;7.20;;;4.38;;
33902;SDS011;20194;50.950;5.346;2022-12-19T09:04:59;7.95;;;3.88;;
33902;SDS011;20194;50.950;5.346;2022-12-19T09:07:24;9.13;;;3.70;;
33902;SDS011;20194;50.950;5.346;2022-12-19T09:09:50;7.00;;;3.83;;
33902;SDS011;20194;50.950;5.346;2022-12-19T09:12:16;8.75;;;4.88;;
33902;SDS011;20194;50.950;5.346;2022-12-19T09:14:41;12.18;;;4.55;;
33902;SDS011;20194;50.950;5.346;2022-12-19T09:17:08;10.52;;;4.20;;
33902;SDS011;20194;50.950;5.346;2022-12-19T09:19:33;8.73;;;4.30;;
33902;SDS011;20194;50.950;5.346;2022-12-19T09:22:07;9.90;;;4.40;;
33902;SDS011;20194;50.950;5.346;2022-12-19T09:24:33;8.00;;;4.15;;
33902;SDS011;20194;50.950;5.346;2022-12-19T09:26:58;11.88;;;4.18;;
33902;SDS011;20194;50.950;5.346;2022-12-19T09:29:24;10.43;;;4.43;;
33902;SDS011;20194;50.950;5.346;2022-12-19T09:31:49;7.40;;;4.10;;
33902;SDS011;20194;50.950;5.346;2022-12-19T09:34:15;7.15;;;3.80;;
33902;SDS011;20194;50.950;5.346;2022-12-19T09:36:41;6.43;;;3.42;;
33902;SDS011;20194;50.950;5.346;2022-12-19T09:39:08;6.05;;;3.72;;
33902;SDS011;20194;50.950;5.346;2022-12-19T09:47:04;6.63;;;4.03;;
33902;SDS011;20194;50.950;5.346;2022-12-19T09:49:41;9.65;;;3.70;;
33902;SDS011;20194;50.950;5.346;2022-12-19T09:55:16;4.97;;;3.13;;
33902;SDS011;20194;50.950;5.346;2022-12-19T09:58:06;6.75;;;3.90;;
33902;SDS011;20194;50.950;5.346;2022-12-19T10:00:43;6.60;;;2.85;;
33902;SDS011;20194;50.950;5.346;2022-12-19T10:08:38;8.20;;;3.45;;
33902;SDS011;20194;50.950;5.346;2022-12-19T10:22:26;9.57;;;3.42;;
33902;SDS011;20194;50.950;5.346;2022-12-19T10:27:33;10.27;;;4.22;;
33902;SDS011;20194;50.950;5.346;2022-12-19T10:32:37;5.53;;;3.40;;
33902;SDS011;20194;50.950;5.346;2022-12-19T10:35:17;5.40;;;3.47;;
33902;SDS011;20194;50.950;5.346;2022-12-19T10:37:52;12.25;;;3.22;;
33902;SDS011;20194;50.950;5.346;2022-12-19T10:40:33;8.40;;;3.72;;
33902;SDS011;20194;50.950;5.346;2022-12-19T10:43:12;7.80;;;3.33;;
33902;SDS011;20194;50.950;5.346;2022-12-19T10:45:53;5.43;;;3.33;;
33902;SDS011;20194;50.950;5.346;2022-12-19T10:48:23;7.18;;;3.85;;
33902;SDS011;20194;50.950;5.346;2022-12-19T10:50:48;9.82;;;3.55;;
33902;SDS011;20194;50.950;5.346;2022-12-19T10:53:15;6.05;;;3.50;;
33902;SDS011;20194;50.950;5.346;2022-12-19T10:55:50;5.60;;;3.20;;
33902;SDS011;20194;50.950;5.346;2022-12-19T11:01:09;7.95;;;4.07;;
33902;SDS011;20194;50.950;5.346;2022-12-19T11:04:32;6.50;;;3.10;;
33902;SDS011;20194;50.950;5.346;2022-12-19T11:14:36;8.40;;;3.30;;
33902;SDS011;20194;50.950;5.346;2022-12-19T11:17:04;6.50;;;2.97;;
33902;SDS011;20194;50.950;5.346;2022-12-19T11:19:37;5.63;;;2.80;;
33902;SDS011;20194;50.950;5.346;2022-12-19T11:22:13;3.63;;;2.77;;
33902;SDS011;20194;50.950;5.346;2022-12-19T11:25:05;6.78;;;2.95;;
33902;SDS011;20194;50.950;5.346;2022-12-19T11:27:41;7.88;;;2.78;;
33902;SDS011;20194;50.950;5.346;2022-12-19T11:32:46;5.22;;;2.95;;
33902;SDS011;20194;50.950;5.346;2022-12-19T11:37:49;6.65;;;3.25;;
33902;SDS011;20194;50.950;5.346;2022-12-19T11:50:57;7.00;;;3.35;;
33902;SDS011;20194;50.950;5.346;2022-12-19T11:56:13;4.88;;;3.17;;
33902;SDS011;20194;50.950;5.346;2022-12-19T11:58:41;6.57;;;3.20;;
33902;SDS011;20194;50.950;5.346;2022-12-19T12:04:04;6.18;;;3.45;;
33902;SDS011;20194;50.950;5.346;2022-12-19T12:06:53;5.80;;;3.20;;
33902;SDS011;20194;50.950;5.346;2022-12-19T12:09:42;6.38;;;3.17;;
33902;SDS011;20194;50.950;5.346;2022-12-19T12:20:23;5.97;;;3.30;;
33902;SDS011;20194;50.950;5.346;2022-12-19T12:23:16;12.15;;;3.30;;
33902;SDS011;20194;50.950;5.346;2022-12-19T12:39:30;5.38;;;2.60;;
33902;SDS011;20194;50.950;5.346;2022-12-19T12:42:29;7.43;;;3.40;;
33902;SDS011;20194;50.950;5.346;2022-12-19T12:48:02;10.50;;;3.28;;
33902;SDS011;20194;50.950;5.346;2022-12-19T12:50:56;5.35;;;2.88;;
33902;SDS011;20194;50.950;5.346;2022-12-19T12:53:30;4.63;;;2.60;;
33902;SDS011;20194;50.950;5.346;2022-12-19T12:55:59;3.60;;;2.70;;
33902;SDS011;20194;50.950;5.346;2022-12-19T12:58:43;4.78;;;2.58;;
33902;SDS011;20194;50.950;5.346;2022-12-19T13:03:58;4.90;;;2.78;;
33902;SDS011;20194;50.950;5.346;2022-12-19T13:06:36;7.70;;;3.47;;
33902;SDS011;20194;50.950;5.346;2022-12-19T13:09:26;6.38;;;3.13;;
33902;SDS011;20194;50.950;5.346;2022-12-19T13:22:43;5.50;;;2.78;;
33902;SDS011;20194;50.950;5.346;2022-12-19T13:30:28;3.58;;;1.95;;
33902;SDS011;20194;50.950;5.346;2022-12-19T13:40:55;4.07;;;2.40;;
33902;SDS011;20194;50.950;5.346;2022-12-19T13:43:41;3.33;;;2.20;;
33902;SDS011;20194;50.950;5.346;2022-12-19T13:48:52;5.22;;;2.70;;
33902;SDS011;20194;50.950;5.346;2022-12-19T13:51:21;4.25;;;2.70;;
33902;SDS011;20194;50.950;5.346;2022-12-19T13:53:50;3.88;;;2.15;;
33902;SDS011;20194;50.950;5.346;2022-12-19T13:56:18;7.78;;;2.67;;
33902;SDS011;20194;50.950;5.346;2022-12-19T14:01:14;9.20;;;3.72;;
33902;SDS011;20194;50.950;5.346;2022-12-19T14:03:50;4.40;;;2.35;;
33902;SDS011;20194;50.950;5.346;2022-12-19T14:06:20;5.95;;;2.40;;
33902;SDS011;20194;50.950;5.346;2022-12-19T14:08:46;5.22;;;2.50;;
33902;SDS011;20194;50.950;5.346;2022-12-19T14:11:15;5.18;;;2.55;;
33902;SDS011;20194;50.950;5.346;2022-12-19T14:13:51;6.88;;;2.90;;
33902;SDS011;20194;50.950;5.346;2022-12-19T14:16:43;8.63;;;3.00;;
33902;SDS011;20194;50.950;5.346;2022-12-19T14:19:20;7.38;;;2.78;;
33902;SDS011;20194;50.950;5.346;2022-12-19T14:21:47;7.00;;;2.55;;
33902;SDS011;20194;50.950;5.346;2022-12-19T14:24:20;5.40;;;2.95;;
33902;SDS011;20194;50.950;5.346;2022-12-19T14:26:58;8.48;;;2.58;;
33902;SDS011;20194;50.950;5.346;2022-12-19T14:29:29;4.60;;;2.95;;
33902;SDS011;20194;50.950;5.346;2022-12-19T14:32:07;7.72;;;2.80;;
33902;SDS011;20194;50.950;5.346;2022-12-19T14:34:33;5.40;;;2.10;;
33902;SDS011;20194;50.950;5.346;2022-12-19T14:37:00;5.72;;;2.53;;
33902;SDS011;20194;50.950;5.346;2022-12-19T14:39:32;5.40;;;2.58;;
33902;SDS011;20194;50.950;5.346;2022-12-19T14:42:01;4.20;;;2.83;;
33902;SDS011;20194;50.950;5.346;2022-12-19T14:44:54;5.78;;;2.95;;
33902;SDS011;20194;50.950;5.346;2022-12-19T14:47:24;6.47;;;2.83;;
33902;SDS011;20194;50.950;5.346;2022-12-19T14:49:57;7.25;;;2.85;;
33902;SDS011;20194;50.950;5.346;2022-12-19T14:52:39;6.93;;;2.65;;
33902;SDS011;20194;50.950;5.346;2022-12-19T14:57:45;5.50;;;2.78;;
33902;SDS011;20194;50.950;5.346;2022-12-19T15:00:27;5.60;;;2.60;;
33902;SDS011;20194;50.950;5.346;2022-12-19T15:02:55;4.95;;;2.50;;
33902;SDS011;20194;50.950;5.346;2022-12-19T15:05:24;6.82;;;2.80;;
33902;SDS011;20194;50.950;5.346;2022-12-19T15:07:51;6.10;;;3.20;;
33902;SDS011;20194;50.950;5.346;2022-12-19T15:13:00;5.20;;;2.72;;
33902;SDS011;20194;50.950;5.346;2022-12-19T15:21:05;5.53;;;2.83;;
33902;SDS011;20194;50.950;5.346;2022-12-19T15:23:33;6.63;;;3.30;;
33902;SDS011;20194;50.950;5.346;2022-12-19T15:26:00;7.85;;;2.85;;
33902;SDS011;20194;50.950;5.346;2022-12-19T15:28:40;8.45;;;3.33;;
33902;SDS011;20194;50.950;5.346;2022-12-19T15:33:42;7.03;;;2.60;;
33902;SDS011;20194;50.950;5.346;2022-12-19T15:36:08;7.38;;;2.53;;
33902;SDS011;20194;50.950;5.346;2022-12-19T15:38:34;6.65;;;3.00;;
33902;SDS011;20194;50.950;5.346;2022-12-19T15:40:59;4.30;;;2.70;;
33902;SDS011;20194;50.950;5.346;2022-12-19T15:43:25;7.07;;;2.90;;
33902;SDS011;20194;50.950;5.346;2022-12-19T15:45:55;3.72;;;2.65;;
33902;SDS011;20194;50.950;5.346;2022-12-19T15:48:22;8.48;;;3.30;;
33902;SDS011;20194;50.950;5.346;2022-12-19T15:50:49;5.13;;;2.55;;
33902;SDS011;20194;50.950;5.346;2022-12-19T15:53:20;7.47;;;3.40;;
33902;SDS011;20194;50.950;5.346;2022-12-19T15:55:49;4.70;;;2.83;;
33902;SDS011;20194;50.950;5.346;2022-12-19T15:58:15;4.35;;;2.83;;
33902;SDS011;20194;50.950;5.346;2022-12-19T16:00:45;3.85;;;2.80;;
33902;SDS011;20194;50.950;5.346;2022-12-19T16:03:16;10.45;;;3.10;;
33902;SDS011;20194;50.950;5.346;2022-12-19T16:05:42;5.47;;;2.88;;
33902;SDS011;20194;50.950;5.346;2022-12-19T16:08:15;6.50;;;2.95;;
33902;SDS011;20194;50.950;5.346;2022-12-19T16:10:43;6.95;;;2.90;;
33902;SDS011;20194;50.950;5.346;2022-12-19T16:13:16;4.55;;;2.58;;
33902;SDS011;20194;50.950;5.346;2022-12-19T16:15:45;6.47;;;2.33;;
33902;SDS011;20194;50.950;5.346;2022-12-19T16:18:12;4.00;;;2.63;;
33902;SDS011;20194;50.950;5.346;2022-12-19T16:20:39;6.35;;;3.22;;
33902;SDS011;20194;50.950;5.346;2022-12-19T16:23:06;12.45;;;6.40;;
33902;SDS011;20194;50.950;5.346;2022-12-19T16:28:04;12.05;;;6.13;;
33902;SDS011;20194;50.950;5.346;2022-12-19T16:30:32;13.52;;;5.65;;
33902;SDS011;20194;50.950;5.346;2022-12-19T16:32:59;13.27;;;5.82;;
33902;SDS011;20194;50.950;5.346;2022-12-19T16:35:26;9.82;;;5.60;;
33902;SDS011;20194;50.950;5.346;2022-12-19T16:37:53;16.30;;;8.15;;
33902;SDS011;20194;50.950;5.346;2022-12-19T16:40:20;19.08;;;6.07;;
33902;SDS011;20194;50.950;5.346;2022-12-19T16:42:48;22.08;;;10.63;;
33902;SDS011;20194;50.950;5.346;2022-12-19T16:45:21;25.50;;;11.25;;
33902;SDS011;20194;50.950;5.346;2022-12-19T16:47:48;9.90;;;4.70;;
33902;SDS011;20194;50.950;5.346;2022-12-19T16:50:18;8.93;;;4.47;;
33902;SDS011;20194;50.950;5.346;2022-12-19T16:52:48;8.25;;;4.05;;
33902;SDS011;20194;50.950;5.346;2022-12-19T16:55:14;11.50;;;3.92;;
33902;SDS011;20194;50.950;5.346;2022-12-19T16:57:41;7.55;;;3.65;;
33902;SDS011;20194;50.950;5.346;2022-12-19T17:00:18;6.43;;;3.88;;
33902;SDS011;20194;50.950;5.346;2022-12-19T17:02:52;7.60;;;3.58;;
33902;SDS011;20194;50.950;5.346;2022-12-19T17:05:22;9.00;;;3.08;;
33902;SDS011;20194;50.950;5.346;2022-12-19T17:07:50;7.90;;;3.63;;
33902;SDS011;20194;50.950;5.346;2022-12-19T17:10:18;6.47;;;3.00;;
33902;SDS011;20194;50.950;5.346;2022-12-19T17:12:45;7.03;;;2.92;;
33902;SDS011;20194;50.950;5.346;2022-12-19T17:15:20;7.68;;;3.00;;
33902;SDS011;20194;50.950;5.346;2022-12-19T17:17:49;9.55;;;3.28;;
33902;SDS011;20194;50.950;5.346;2022-12-19T17:20:17;6.05;;;2.63;;
33902;SDS011;20194;50.950;5.346;2022-12-19T17:22:45;6.53;;;2.92;;
33902;SDS011;20194;50.950;5.346;2022-12-19T17:25:33;10.63;;;2.90;;
33902;SDS011;20194;50.950;5.346;2022-12-19T17:27:57;7.72;;;3.83;;
33902;SDS011;20194;50.950;5.346;2022-12-19T17:30:23;6.35;;;2.55;;
33902;SDS011;20194;50.950;5.346;2022-12-19T17:32:49;7.50;;;3.40;;
33902;SDS011;20194;50.950;5.346;2022-12-19T17:35:18;4.82;;;2.78;;
33902;SDS011;20194;50.950;5.346;2022-12-19T17:37:49;6.78;;;3.05;;
33902;SDS011;20194;50.950;5.346;2022-12-19T17:40:18;9.05;;;3.22;;
33902;SDS011;20194;50.950;5.346;2022-12-19T17:42:46;4.93;;;2.60;;